sensor_id;sensor_type;location;lat;lon;timestamp;P1;durP1;ratioP1;P2;durP2;ratioP2
19903;SDS011;10114;50.970;4.962;2022-09-20T00:03:36;6.10;;;1.20;;
19903;SDS011;10114;50.970;4.962;2022-09-20T00:06:03;8.02;;;1.10;;
19903;SDS011;10114;50.970;4.962;2022-09-20T00:08:29;7.38;;;1.63;;
19903;SDS011;10114;50.970;4.962;2022-09-20T00:11:02;3.63;;;1.45;;
19903;SDS011;10114;50.970;4.962;2022-09-20T00:13:29;6.07;;;1.52;;
19903;SDS011;10114;50.970;4.962;2022-09-20T00:15:55;6.47;;;1.40;;
19903;SDS011;10114;50.970;4.962;2022-09-20T00:18:21;7.65;;;1.00;;
19903;SDS011;10114;50.970;4.962;2022-09-20T00:20:48;5.80;;;1.48;;
19903;SDS011;10114;50.970;4.962;2022-09-20T00:23:14;11.23;;;1.20;;
19903;SDS011;10114;50.970;4.962;2022-09-20T00:25:41;4.47;;;1.33;;
19903;SDS011;10114;50.970;4.962;2022-09-20T00:28:07;5.20;;;0.90;;
19903;SDS011;10114;50.970;4.962;2022-09-20T00:30:34;10.40;;;1.10;;
19903;SDS011;10114;50.970;4.962;2022-09-20T00:33:00;3.28;;;0.95;;
19903;SDS011;10114;50.970;4.962;2022-09-20T00:35:27;10.45;;;1.20;;
19903;SDS011;10114;50.970;4.962;2022-09-20T00:37:53;4.90;;;1.10;;
19903;SDS011;10114;50.970;4.962;2022-09-20T00:40:20;6.00;;;1.40;;
19903;SDS011;10114;50.970;4.962;2022-09-20T00:42:47;5.60;;;1.65;;
19903;SDS011;10114;50.970;4.962;2022-09-20T00:45:26;9.20;;;1.30;;
19903;SDS011;10114;50.970;4.962;2022-09-20T00:48:35;7.10;;;1.60;;
19903;SDS011;10114;50.970;4.962;2022-09-20T00:50:50;5.38;;;1.35;;
19903;SDS011;10114;50.970;4.962;2022-09-20T00:53:18;6.35;;;1.33;;
19903;SDS011;10114;50.970;4.962;2022-09-20T00:55:50;6.72;;;1.27;;
19903;SDS011;10114;50.970;4.962;2022-09-20T00:58:16;8.68;;;1.33;;
19903;SDS011;10114;50.970;4.962;2022-09-20T01:00:43;3.33;;;1.15;;
19903;SDS011;10114;50.970;4.962;2022-09-20T01:03:10;10.60;;;1.85;;
19903;SDS011;10114;50.970;4.962;2022-09-20T01:05:38;9.35;;;1.67;;
19903;SDS011;10114;50.970;4.962;2022-09-20T01:08:04;5.40;;;1.17;;
19903;SDS011;10114;50.970;4.962;2022-09-20T01:10:31;4.35;;;1.40;;
19903;SDS011;10114;50.970;4.962;2022-09-20T01:12:57;3.70;;;1.25;;
19903;SDS011;10114;50.970;4.962;2022-09-20T01:15:23;6.15;;;1.17;;
19903;SDS011;10114;50.970;4.962;2022-09-20T01:17:51;8.18;;;1.92;;
19903;SDS011;10114;50.970;4.962;2022-09-20T01:20:22;8.48;;;1.80;;
19903;SDS011;10114;50.970;4.962;2022-09-20T01:28:19;10.05;;;2.47;;
19903;SDS011;10114;50.970;4.962;2022-09-20T01:30:47;5.32;;;1.60;;
19903;SDS011;10114;50.970;4.962;2022-09-20T01:35:43;8.95;;;1.80;;
19903;SDS011;10114;50.970;4.962;2022-09-20T01:41:10;8.52;;;1.67;;
19903;SDS011;10114;50.970;4.962;2022-09-20T01:48:41;6.88;;;1.63;;
19903;SDS011;10114;50.970;4.962;2022-09-20T02:01:33;8.18;;;1.95;;
19903;SDS011;10114;50.970;4.962;2022-09-20T02:04:09;4.40;;;1.55;;
19903;SDS011;10114;50.970;4.962;2022-09-20T02:16:55;7.05;;;1.70;;
19903;SDS011;10114;50.970;4.962;2022-09-20T02:34:56;7.53;;;1.65;;
19903;SDS011;10114;50.970;4.962;2022-09-20T02:43:03;6.53;;;1.80;;
19903;SDS011;10114;50.970;4.962;2022-09-20T02:45:26;5.90;;;1.85;;
19903;SDS011;10114;50.970;4.962;2022-09-20T02:47:55;8.70;;;1.77;;
19903;SDS011;10114;50.970;4.962;2022-09-20T02:50:45;7.45;;;1.63;;
19903;SDS011;10114;50.970;4.962;2022-09-20T02:55:46;8.88;;;1.80;;
19903;SDS011;10114;50.970;4.962;2022-09-20T02:58:19;8.52;;;1.88;;
19903;SDS011;10114;50.970;4.962;2022-09-20T03:08:55;8.80;;;2.40;;
19903;SDS011;10114;50.970;4.962;2022-09-20T03:14:09;5.18;;;1.67;;
19903;SDS011;10114;50.970;4.962;2022-09-20T03:31:49;5.47;;;1.70;;
19903;SDS011;10114;50.970;4.962;2022-09-20T03:37:14;7.93;;;2.10;;
19903;SDS011;10114;50.970;4.962;2022-09-20T03:42:30;8.45;;;2.17;;
19903;SDS011;10114;50.970;4.962;2022-09-20T04:01:05;13.05;;;2.53;;
19903;SDS011;10114;50.970;4.962;2022-09-20T04:13:54;8.75;;;2.42;;
19903;SDS011;10114;50.970;4.962;2022-09-20T04:18:57;8.18;;;2.45;;
19903;SDS011;10114;50.970;4.962;2022-09-20T04:21:37;6.47;;;2.30;;
19903;SDS011;10114;50.970;4.962;2022-09-20T04:26:38;8.93;;;2.20;;
19903;SDS011;10114;50.970;4.962;2022-09-20T04:32:10;10.07;;;2.72;;
19903;SDS011;10114;50.970;4.962;2022-09-20T04:34:43;9.43;;;2.53;;
19903;SDS011;10114;50.970;4.962;2022-09-20T04:37:34;11.30;;;2.95;;
19903;SDS011;10114;50.970;4.962;2022-09-20T04:42:51;13.50;;;2.70;;
19903;SDS011;10114;50.970;4.962;2022-09-20T04:48:08;8.82;;;2.67;;
19903;SDS011;10114;50.970;4.962;2022-09-20T04:51:05;13.70;;;3.72;;
19903;SDS011;10114;50.970;4.962;2022-09-20T04:53:58;12.30;;;3.65;;
19903;SDS011;10114;50.970;4.962;2022-09-20T05:00:00;8.10;;;3.67;;
19903;SDS011;10114;50.970;4.962;2022-09-20T05:12:57;11.75;;;2.85;;
19903;SDS011;10114;50.970;4.962;2022-09-20T05:30:48;9.32;;;1.88;;
19903;SDS011;10114;50.970;4.962;2022-09-20T05:40:54;7.15;;;1.80;;
19903;SDS011;10114;50.970;4.962;2022-09-20T05:43:31;5.80;;;1.75;;
19903;SDS011;10114;50.970;4.962;2022-09-20T05:53:32;11.43;;;2.42;;
19903;SDS011;10114;50.970;4.962;2022-09-20T06:01:15;12.40;;;2.33;;
19903;SDS011;10114;50.970;4.962;2022-09-20T06:03:45;6.13;;;1.90;;
19903;SDS011;10114;50.970;4.962;2022-09-20T06:06:28;12.88;;;2.85;;
19903;SDS011;10114;50.970;4.962;2022-09-20T06:09:19;8.15;;;2.30;;
19903;SDS011;10114;50.970;4.962;2022-09-20T06:14:44;7.38;;;2.20;;
19903;SDS011;10114;50.970;4.962;2022-09-20T06:17:27;7.57;;;2.13;;
19903;SDS011;10114;50.970;4.962;2022-09-20T06:22:36;7.47;;;2.28;;
19903;SDS011;10114;50.970;4.962;2022-09-20T06:30:04;8.45;;;3.10;;
19903;SDS011;10114;50.970;4.962;2022-09-20T06:32:31;6.10;;;2.63;;
19903;SDS011;10114;50.970;4.962;2022-09-20T06:34:58;9.85;;;3.40;;
19903;SDS011;10114;50.970;4.962;2022-09-20T06:37:50;11.73;;;3.33;;
19903;SDS011;10114;50.970;4.962;2022-09-20T06:43:21;7.13;;;3.00;;
19903;SDS011;10114;50.970;4.962;2022-09-20T06:45:47;6.55;;;3.10;;
19903;SDS011;10114;50.970;4.962;2022-09-20T06:48:14;8.77;;;3.38;;
19903;SDS011;10114;50.970;4.962;2022-09-20T06:50:40;8.25;;;3.33;;
19903;SDS011;10114;50.970;4.962;2022-09-20T06:53:11;9.23;;;3.03;;
19903;SDS011;10114;50.970;4.962;2022-09-20T06:55:39;8.15;;;3.17;;
19903;SDS011;10114;50.970;4.962;2022-09-20T06:58:06;7.65;;;3.17;;
19903;SDS011;10114;50.970;4.962;2022-09-20T07:00:33;8.85;;;3.15;;
19903;SDS011;10114;50.970;4.962;2022-09-20T07:02:59;9.80;;;3.55;;
19903;SDS011;10114;50.970;4.962;2022-09-20T07:05:25;10.68;;;3.03;;
19903;SDS011;10114;50.970;4.962;2022-09-20T07:07:55;10.68;;;2.95;;
19903;SDS011;10114;50.970;4.962;2022-09-20T07:10:21;9.35;;;3.00;;
19903;SDS011;10114;50.970;4.962;2022-09-20T07:12:47;10.50;;;2.60;;
19903;SDS011;10114;50.970;4.962;2022-09-20T07:15:13;7.60;;;2.42;;
19903;SDS011;10114;50.970;4.962;2022-09-20T07:17:43;8.80;;;2.63;;
19903;SDS011;10114;50.970;4.962;2022-09-20T07:20:09;10.13;;;3.03;;
19903;SDS011;10114;50.970;4.962;2022-09-20T07:22:35;9.60;;;2.95;;
19903;SDS011;10114;50.970;4.962;2022-09-20T07:25:01;8.43;;;2.72;;
19903;SDS011;10114;50.970;4.962;2022-09-20T07:27:28;9.13;;;3.33;;
19903;SDS011;10114;50.970;4.962;2022-09-20T07:29:54;12.68;;;3.80;;
19903;SDS011;10114;50.970;4.962;2022-09-20T07:32:20;12.00;;;3.90;;
19903;SDS011;10114;50.970;4.962;2022-09-20T07:34:46;10.13;;;3.42;;
19903;SDS011;10114;50.970;4.962;2022-09-20T07:37:12;11.55;;;3.67;;
19903;SDS011;10114;50.970;4.962;2022-09-20T07:39:38;8.07;;;3.75;;
19903;SDS011;10114;50.970;4.962;2022-09-20T07:42:04;10.63;;;3.35;;
19903;SDS011;10114;50.970;4.962;2022-09-20T07:44:31;9.93;;;3.20;;
19903;SDS011;10114;50.970;4.962;2022-09-20T07:46:57;7.90;;;3.25;;
19903;SDS011;10114;50.970;4.962;2022-09-20T07:49:24;8.73;;;2.70;;
19903;SDS011;10114;50.970;4.962;2022-09-20T07:51:51;8.40;;;3.53;;
19903;SDS011;10114;50.970;4.962;2022-09-20T07:54:17;11.57;;;3.35;;
19903;SDS011;10114;50.970;4.962;2022-09-20T07:56:43;10.50;;;3.55;;
19903;SDS011;10114;50.970;4.962;2022-09-20T07:59:10;9.85;;;4.00;;
19903;SDS011;10114;50.970;4.962;2022-09-20T08:01:36;10.88;;;3.47;;
19903;SDS011;10114;50.970;4.962;2022-09-20T08:04:03;9.80;;;3.42;;
19903;SDS011;10114;50.970;4.962;2022-09-20T08:06:29;8.90;;;4.22;;
19903;SDS011;10114;50.970;4.962;2022-09-20T08:08:55;9.98;;;3.70;;
19903;SDS011;10114;50.970;4.962;2022-09-20T08:11:22;11.27;;;3.78;;
19903;SDS011;10114;50.970;4.962;2022-09-20T08:13:53;16.30;;;3.75;;
19903;SDS011;10114;50.970;4.962;2022-09-20T08:16:21;12.63;;;4.07;;
19903;SDS011;10114;50.970;4.962;2022-09-20T08:18:48;7.60;;;3.42;;
19903;SDS011;10114;50.970;4.962;2022-09-20T08:21:15;10.75;;;3.13;;
19903;SDS011;10114;50.970;4.962;2022-09-20T08:23:42;10.95;;;3.78;;
19903;SDS011;10114;50.970;4.962;2022-09-20T08:26:11;11.88;;;3.25;;
19903;SDS011;10114;50.970;4.962;2022-09-20T08:28:38;11.45;;;3.13;;
19903;SDS011;10114;50.970;4.962;2022-09-20T08:31:09;8.50;;;3.08;;
19903;SDS011;10114;50.970;4.962;2022-09-20T08:33:37;8.52;;;2.90;;
19903;SDS011;10114;50.970;4.962;2022-09-20T08:36:07;15.05;;;3.30;;
19903;SDS011;10114;50.970;4.962;2022-09-20T08:38:33;8.75;;;2.67;;
19903;SDS011;10114;50.970;4.962;2022-09-20T08:41:09;9.13;;;2.80;;
19903;SDS011;10114;50.970;4.962;2022-09-20T08:43:39;8.45;;;2.63;;
19903;SDS011;10114;50.970;4.962;2022-09-20T08:46:09;8.18;;;2.67;;
19903;SDS011;10114;50.970;4.962;2022-09-20T08:48:38;8.20;;;2.50;;
19903;SDS011;10114;50.970;4.962;2022-09-20T08:51:04;7.63;;;2.42;;
19903;SDS011;10114;50.970;4.962;2022-09-20T08:53:31;9.75;;;2.65;;
19903;SDS011;10114;50.970;4.962;2022-09-20T08:55:57;12.07;;;2.75;;
19903;SDS011;10114;50.970;4.962;2022-09-20T08:58:24;10.15;;;2.90;;
19903;SDS011;10114;50.970;4.962;2022-09-20T09:00:51;6.90;;;2.95;;
19903;SDS011;10114;50.970;4.962;2022-09-20T09:03:17;7.57;;;2.65;;
19903;SDS011;10114;50.970;4.962;2022-09-20T09:08:17;8.32;;;2.55;;
19903;SDS011;10114;50.970;4.962;2022-09-20T09:10:44;8.18;;;2.30;;
19903;SDS011;10114;50.970;4.962;2022-09-20T09:13:13;6.30;;;2.30;;
19903;SDS011;10114;50.970;4.962;2022-09-20T09:15:42;5.85;;;2.40;;
19903;SDS011;10114;50.970;4.962;2022-09-20T09:18:09;9.00;;;2.90;;
19903;SDS011;10114;50.970;4.962;2022-09-20T09:20:39;8.00;;;2.42;;
19903;SDS011;10114;50.970;4.962;2022-09-20T09:23:18;12.63;;;3.13;;
19903;SDS011;10114;50.970;4.962;2022-09-20T09:25:49;11.32;;;2.60;;
19903;SDS011;10114;50.970;4.962;2022-09-20T09:28:16;6.65;;;2.42;;
19903;SDS011;10114;50.970;4.962;2022-09-20T09:30:45;8.50;;;2.72;;
19903;SDS011;10114;50.970;4.962;2022-09-20T09:35:57;9.40;;;2.30;;
19903;SDS011;10114;50.970;4.962;2022-09-20T09:38:28;11.85;;;2.55;;
19903;SDS011;10114;50.970;4.962;2022-09-20T09:41:01;7.78;;;1.98;;
19903;SDS011;10114;50.970;4.962;2022-09-20T09:43:28;13.27;;;2.10;;
19903;SDS011;10114;50.970;4.962;2022-09-20T09:46:14;10.23;;;2.13;;
19903;SDS011;10114;50.970;4.962;2022-09-20T09:48:45;10.85;;;2.67;;
19903;SDS011;10114;50.970;4.962;2022-09-20T09:51:18;7.75;;;2.15;;
19903;SDS011;10114;50.970;4.962;2022-09-20T09:53:44;7.60;;;1.80;;
19903;SDS011;10114;50.970;4.962;2022-09-20T10:04:10;8.05;;;1.85;;
19903;SDS011;10114;50.970;4.962;2022-09-20T10:24:40;5.60;;;0.95;;
19903;SDS011;10114;50.970;4.962;2022-09-20T10:29:39;5.70;;;1.00;;
19903;SDS011;10114;50.970;4.962;2022-09-20T10:37:13;7.63;;;1.42;;
19903;SDS011;10114;50.970;4.962;2022-09-20T10:39:42;5.63;;;1.45;;
19903;SDS011;10114;50.970;4.962;2022-09-20T10:42:32;5.90;;;1.35;;
19903;SDS011;10114;50.970;4.962;2022-09-20T10:45:20;7.82;;;1.27;;
19903;SDS011;10114;50.970;4.962;2022-09-20T10:53:33;4.40;;;0.75;;
19903;SDS011;10114;50.970;4.962;2022-09-20T11:01:13;6.88;;;1.13;;
19903;SDS011;10114;50.970;4.962;2022-09-20T11:03:52;3.85;;;0.70;;
19903;SDS011;10114;50.970;4.962;2022-09-20T11:09:05;6.97;;;1.10;;
19903;SDS011;10114;50.970;4.962;2022-09-20T11:11:35;4.10;;;1.10;;
19903;SDS011;10114;50.970;4.962;2022-09-20T11:14:05;3.65;;;0.95;;
19903;SDS011;10114;50.970;4.962;2022-09-20T11:17:08;8.13;;;1.20;;
19903;SDS011;10114;50.970;4.962;2022-09-20T11:19:31;5.75;;;1.02;;
19903;SDS011;10114;50.970;4.962;2022-09-20T11:27:07;6.65;;;0.82;;
19903;SDS011;10114;50.970;4.962;2022-09-20T11:29:39;7.07;;;1.02;;
19903;SDS011;10114;50.970;4.962;2022-09-20T11:37:13;6.38;;;1.20;;
19903;SDS011;10114;50.970;4.962;2022-09-20T11:39:44;2.75;;;0.60;;
19903;SDS011;10114;50.970;4.962;2022-09-20T11:42:33;5.25;;;0.88;;
19903;SDS011;10114;50.970;4.962;2022-09-20T11:44:58;4.03;;;0.60;;
19903;SDS011;10114;50.970;4.962;2022-09-20T11:50:10;3.50;;;0.60;;
19903;SDS011;10114;50.970;4.962;2022-09-20T11:55:22;5.93;;;1.00;;
19903;SDS011;10114;50.970;4.962;2022-09-20T11:57:58;5.00;;;0.80;;
19903;SDS011;10114;50.970;4.962;2022-09-20T12:00:27;9.10;;;1.15;;
19903;SDS011;10114;50.970;4.962;2022-09-20T12:02:54;4.05;;;0.90;;
19903;SDS011;10114;50.970;4.962;2022-09-20T12:05:31;6.63;;;0.93;;
19903;SDS011;10114;50.970;4.962;2022-09-20T12:07:59;6.78;;;1.13;;
19903;SDS011;10114;50.970;4.962;2022-09-20T12:10:27;4.95;;;1.25;;
19903;SDS011;10114;50.970;4.962;2022-09-20T12:12:58;5.50;;;0.90;;
19903;SDS011;10114;50.970;4.962;2022-09-20T12:15:26;4.55;;;0.70;;
19903;SDS011;10114;50.970;4.962;2022-09-20T12:25:58;4.82;;;1.00;;
19903;SDS011;10114;50.970;4.962;2022-09-20T12:28:38;4.00;;;0.90;;
19903;SDS011;10114;50.970;4.962;2022-09-20T12:36:40;3.70;;;0.70;;
19903;SDS011;10114;50.970;4.962;2022-09-20T12:46:52;7.03;;;1.00;;
19903;SDS011;10114;50.970;4.962;2022-09-20T12:49:33;2.40;;;0.38;;
19903;SDS011;10114;50.970;4.962;2022-09-20T12:55:10;7.00;;;1.10;;
19903;SDS011;10114;50.970;4.962;2022-09-20T12:57:36;4.55;;;0.90;;
19903;SDS011;10114;50.970;4.962;2022-09-20T13:00:04;5.20;;;0.90;;
19903;SDS011;10114;50.970;4.962;2022-09-20T13:02:40;4.03;;;1.23;;
19903;SDS011;10114;50.970;4.962;2022-09-20T13:05:40;6.38;;;1.00;;
19903;SDS011;10114;50.970;4.962;2022-09-20T13:08:21;3.92;;;0.88;;
19903;SDS011;10114;50.970;4.962;2022-09-20T13:10:52;4.32;;;1.02;;
19903;SDS011;10114;50.970;4.962;2022-09-20T13:13:27;7.82;;;1.00;;
19903;SDS011;10114;50.970;4.962;2022-09-20T13:15:55;2.60;;;1.08;;
19903;SDS011;10114;50.970;4.962;2022-09-20T13:18:22;4.65;;;1.17;;
19903;SDS011;10114;50.970;4.962;2022-09-20T13:20:50;4.68;;;0.88;;
19903;SDS011;10114;50.970;4.962;2022-09-20T13:23:17;8.50;;;1.05;;
19903;SDS011;10114;50.970;4.962;2022-09-20T13:25:44;6.95;;;1.08;;
19903;SDS011;10114;50.970;4.962;2022-09-20T13:28:18;9.10;;;1.13;;
19903;SDS011;10114;50.970;4.962;2022-09-20T13:30:49;7.53;;;1.05;;
19903;SDS011;10114;50.970;4.962;2022-09-20T13:33:24;4.07;;;0.85;;
19903;SDS011;10114;50.970;4.962;2022-09-20T13:35:54;7.72;;;1.42;;
19903;SDS011;10114;50.970;4.962;2022-09-20T13:38:23;7.35;;;1.40;;
19903;SDS011;10114;50.970;4.962;2022-09-20T13:40:50;6.55;;;1.33;;
19903;SDS011;10114;50.970;4.962;2022-09-20T13:43:31;4.57;;;0.82;;
19903;SDS011;10114;50.970;4.962;2022-09-20T13:46:07;4.63;;;1.10;;
19903;SDS011;10114;50.970;4.962;2022-09-20T13:48:34;3.78;;;0.60;;
19903;SDS011;10114;50.970;4.962;2022-09-20T13:51:00;7.57;;;1.50;;
19903;SDS011;10114;50.970;4.962;2022-09-20T13:53:27;2.83;;;0.88;;
19903;SDS011;10114;50.970;4.962;2022-09-20T13:55:54;6.88;;;1.17;;
19903;SDS011;10114;50.970;4.962;2022-09-20T13:58:33;8.05;;;1.10;;
19903;SDS011;10114;50.970;4.962;2022-09-20T14:01:04;7.70;;;1.38;;
19903;SDS011;10114;50.970;4.962;2022-09-20T14:03:33;5.32;;;0.90;;
19903;SDS011;10114;50.970;4.962;2022-09-20T14:06:01;6.68;;;1.38;;
19903;SDS011;10114;50.970;4.962;2022-09-20T14:08:34;6.80;;;1.40;;
19903;SDS011;10114;50.970;4.962;2022-09-20T14:13:35;6.57;;;1.00;;
19903;SDS011;10114;50.970;4.962;2022-09-20T14:16:02;4.72;;;1.02;;
19903;SDS011;10114;50.970;4.962;2022-09-20T14:18:28;6.18;;;0.75;;
19903;SDS011;10114;50.970;4.962;2022-09-20T14:20:55;5.97;;;1.10;;
19903;SDS011;10114;50.970;4.962;2022-09-20T14:23:25;5.05;;;1.15;;
19903;SDS011;10114;50.970;4.962;2022-09-20T14:26:05;5.03;;;1.00;;
19903;SDS011;10114;50.970;4.962;2022-09-20T14:28:31;5.28;;;0.82;;
19903;SDS011;10114;50.970;4.962;2022-09-20T14:31:07;5.57;;;1.15;;
19903;SDS011;10114;50.970;4.962;2022-09-20T14:33:39;6.40;;;0.90;;
19903;SDS011;10114;50.970;4.962;2022-09-20T14:36:10;5.00;;;0.95;;
19903;SDS011;10114;50.970;4.962;2022-09-20T14:38:38;10.00;;;1.20;;
19903;SDS011;10114;50.970;4.962;2022-09-20T14:41:04;6.72;;;1.50;;
19903;SDS011;10114;50.970;4.962;2022-09-20T14:43:31;10.63;;;1.92;;
19903;SDS011;10114;50.970;4.962;2022-09-20T14:45:59;3.95;;;1.02;;
19903;SDS011;10114;50.970;4.962;2022-09-20T14:53:40;5.95;;;1.17;;
19903;SDS011;10114;50.970;4.962;2022-09-20T14:56:10;7.63;;;1.25;;
19903;SDS011;10114;50.970;4.962;2022-09-20T15:01:22;6.93;;;1.00;;
19903;SDS011;10114;50.970;4.962;2022-09-20T15:03:49;4.75;;;1.08;;
19903;SDS011;10114;50.970;4.962;2022-09-20T15:06:15;5.75;;;1.00;;
19903;SDS011;10114;50.970;4.962;2022-09-20T15:08:42;5.47;;;1.00;;
19903;SDS011;10114;50.970;4.962;2022-09-20T15:11:15;7.05;;;1.25;;
19903;SDS011;10114;50.970;4.962;2022-09-20T15:13:41;9.60;;;1.23;;
19903;SDS011;10114;50.970;4.962;2022-09-20T15:16:07;8.57;;;1.00;;
19903;SDS011;10114;50.970;4.962;2022-09-20T15:18:39;7.13;;;1.45;;
19903;SDS011;10114;50.970;4.962;2022-09-20T15:21:06;3.22;;;0.90;;
19903;SDS011;10114;50.970;4.962;2022-09-20T15:23:33;8.70;;;1.00;;
19903;SDS011;10114;50.970;4.962;2022-09-20T15:26:00;6.32;;;1.33;;
19903;SDS011;10114;50.970;4.962;2022-09-20T15:28:26;6.13;;;1.10;;
19903;SDS011;10114;50.970;4.962;2022-09-20T15:30:52;6.20;;;1.30;;
19903;SDS011;10114;50.970;4.962;2022-09-20T15:33:19;6.75;;;1.50;;
19903;SDS011;10114;50.970;4.962;2022-09-20T15:35:46;5.15;;;1.27;;
19903;SDS011;10114;50.970;4.962;2022-09-20T15:38:12;7.30;;;1.35;;
19903;SDS011;10114;50.970;4.962;2022-09-20T15:40:41;8.95;;;1.48;;
19903;SDS011;10114;50.970;4.962;2022-09-20T15:43:07;5.63;;;1.35;;
19903;SDS011;10114;50.970;4.962;2022-09-20T15:45:45;5.15;;;1.10;;
19903;SDS011;10114;50.970;4.962;2022-09-20T15:48:14;7.22;;;1.60;;
19903;SDS011;10114;50.970;4.962;2022-09-20T15:50:40;5.00;;;1.10;;
19903;SDS011;10114;50.970;4.962;2022-09-20T15:53:07;6.60;;;1.23;;
19903;SDS011;10114;50.970;4.962;2022-09-20T15:55:35;6.28;;;1.20;;
19903;SDS011;10114;50.970;4.962;2022-09-20T15:58:01;5.80;;;1.20;;
19903;SDS011;10114;50.970;4.962;2022-09-20T16:00:27;6.70;;;1.17;;
19903;SDS011;10114;50.970;4.962;2022-09-20T16:02:54;6.13;;;1.02;;
19903;SDS011;10114;50.970;4.962;2022-09-20T16:05:20;7.38;;;1.30;;
19903;SDS011;10114;50.970;4.962;2022-09-20T16:07:46;5.38;;;1.13;;
19903;SDS011;10114;50.970;4.962;2022-09-20T16:10:12;5.78;;;1.40;;
19903;SDS011;10114;50.970;4.962;2022-09-20T16:12:38;8.50;;;1.50;;
19903;SDS011;10114;50.970;4.962;2022-09-20T16:15:04;7.72;;;1.92;;
19903;SDS011;10114;50.970;4.962;2022-09-20T16:17:31;4.10;;;1.30;;
19903;SDS011;10114;50.970;4.962;2022-09-20T16:20:15;5.85;;;1.50;;
19903;SDS011;10114;50.970;4.962;2022-09-20T16:22:41;6.78;;;1.45;;
19903;SDS011;10114;50.970;4.962;2022-09-20T16:25:08;8.18;;;1.45;;
19903;SDS011;10114;50.970;4.962;2022-09-20T16:27:34;3.42;;;0.88;;
19903;SDS011;10114;50.970;4.962;2022-09-20T16:30:00;3.75;;;0.85;;
19903;SDS011;10114;50.970;4.962;2022-09-20T16:32:27;5.72;;;1.23;;
19903;SDS011;10114;50.970;4.962;2022-09-20T16:34:52;5.90;;;1.15;;
19903;SDS011;10114;50.970;4.962;2022-09-20T16:37:18;6.80;;;1.40;;
19903;SDS011;10114;50.970;4.962;2022-09-20T16:39:46;6.85;;;1.42;;
19903;SDS011;10114;50.970;4.962;2022-09-20T16:42:12;5.18;;;1.33;;
19903;SDS011;10114;50.970;4.962;2022-09-20T16:44:40;9.68;;;1.70;;
19903;SDS011;10114;50.970;4.962;2022-09-20T16:47:07;4.20;;;1.40;;
19903;SDS011;10114;50.970;4.962;2022-09-20T16:49:35;7.47;;;1.67;;
19903;SDS011;10114;50.970;4.962;2022-09-20T16:52:04;6.60;;;1.38;;
19903;SDS011;10114;50.970;4.962;2022-09-20T16:54:31;5.30;;;1.35;;
19903;SDS011;10114;50.970;4.962;2022-09-20T16:56:57;5.10;;;1.33;;
19903;SDS011;10114;50.970;4.962;2022-09-20T16:59:24;7.90;;;1.42;;
19903;SDS011;10114;50.970;4.962;2022-09-20T17:01:51;7.03;;;1.50;;
19903;SDS011;10114;50.970;4.962;2022-09-20T17:04:17;4.38;;;1.25;;
19903;SDS011;10114;50.970;4.962;2022-09-20T17:06:45;7.65;;;1.42;;
19903;SDS011;10114;50.970;4.962;2022-09-20T17:09:12;5.47;;;1.27;;
19903;SDS011;10114;50.970;4.962;2022-09-20T17:11:39;5.18;;;1.38;;
19903;SDS011;10114;50.970;4.962;2022-09-20T17:14:06;8.85;;;1.40;;
19903;SDS011;10114;50.970;4.962;2022-09-20T17:16:34;6.65;;;1.50;;
19903;SDS011;10114;50.970;4.962;2022-09-20T17:19:02;9.35;;;1.60;;
19903;SDS011;10114;50.970;4.962;2022-09-20T17:21:31;6.30;;;1.63;;
19903;SDS011;10114;50.970;4.962;2022-09-20T17:24:00;7.22;;;1.60;;
19903;SDS011;10114;50.970;4.962;2022-09-20T17:26:26;7.57;;;2.30;;
19903;SDS011;10114;50.970;4.962;2022-09-20T17:28:55;5.90;;;2.00;;
19903;SDS011;10114;50.970;4.962;2022-09-20T17:31:24;8.13;;;2.22;;
19903;SDS011;10114;50.970;4.962;2022-09-20T17:33:52;13.40;;;3.10;;
19903;SDS011;10114;50.970;4.962;2022-09-20T17:36:19;6.35;;;2.03;;
19903;SDS011;10114;50.970;4.962;2022-09-20T17:38:46;10.93;;;2.15;;
19903;SDS011;10114;50.970;4.962;2022-09-20T17:41:16;10.73;;;2.47;;
19903;SDS011;10114;50.970;4.962;2022-09-20T17:43:42;8.13;;;3.65;;
19903;SDS011;10114;50.970;4.962;2022-09-20T17:48:35;13.93;;;5.07;;
19903;SDS011;10114;50.970;4.962;2022-09-20T17:51:02;9.25;;;3.95;;
19903;SDS011;10114;50.970;4.962;2022-09-20T17:53:29;17.45;;;3.95;;
19903;SDS011;10114;50.970;4.962;2022-09-20T17:55:58;12.30;;;3.92;;
19903;SDS011;10114;50.970;4.962;2022-09-20T17:58:25;10.10;;;3.83;;
19903;SDS011;10114;50.970;4.962;2022-09-20T18:00:51;14.15;;;4.68;;
19903;SDS011;10114;50.970;4.962;2022-09-20T18:03:20;12.73;;;3.60;;
19903;SDS011;10114;50.970;4.962;2022-09-20T18:05:47;10.63;;;3.55;;
19903;SDS011;10114;50.970;4.962;2022-09-20T18:08:14;9.10;;;3.17;;
19903;SDS011;10114;50.970;4.962;2022-09-20T18:10:40;10.38;;;2.88;;
19903;SDS011;10114;50.970;4.962;2022-09-20T18:13:07;6.40;;;2.40;;
19903;SDS011;10114;50.970;4.962;2022-09-20T18:15:33;16.20;;;4.25;;
19903;SDS011;10114;50.970;4.962;2022-09-20T18:17:59;14.48;;;6.88;;
19903;SDS011;10114;50.970;4.962;2022-09-20T18:20:25;22.27;;;14.65;;
19903;SDS011;10114;50.970;4.962;2022-09-20T18:22:52;23.45;;;14.63;;
19903;SDS011;10114;50.970;4.962;2022-09-20T18:25:18;15.77;;;10.30;;
19903;SDS011;10114;50.970;4.962;2022-09-20T18:27:44;15.43;;;7.32;;
19903;SDS011;10114;50.970;4.962;2022-09-20T18:30:10;13.82;;;7.10;;
19903;SDS011;10114;50.970;4.962;2022-09-20T18:32:36;12.20;;;4.43;;
19903;SDS011;10114;50.970;4.962;2022-09-20T18:35:05;13.48;;;3.60;;
19903;SDS011;10114;50.970;4.962;2022-09-20T18:37:32;7.57;;;2.75;;
19903;SDS011;10114;50.970;4.962;2022-09-20T18:39:59;8.23;;;2.63;;
19903;SDS011;10114;50.970;4.962;2022-09-20T18:42:25;9.75;;;2.45;;
19903;SDS011;10114;50.970;4.962;2022-09-20T18:44:54;6.85;;;2.72;;
19903;SDS011;10114;50.970;4.962;2022-09-20T18:47:21;12.98;;;3.63;;
19903;SDS011;10114;50.970;4.962;2022-09-20T18:49:48;8.63;;;2.40;;
19903;SDS011;10114;50.970;4.962;2022-09-20T18:52:14;11.57;;;2.78;;
19903;SDS011;10114;50.970;4.962;2022-09-20T18:54:48;6.50;;;2.45;;
19903;SDS011;10114;50.970;4.962;2022-09-20T18:57:15;9.30;;;2.97;;
19903;SDS011;10114;50.970;4.962;2022-09-20T18:59:41;15.98;;;2.80;;
19903;SDS011;10114;50.970;4.962;2022-09-20T19:12:29;8.68;;;2.40;;
19903;SDS011;10114;50.970;4.962;2022-09-20T19:17:23;9.40;;;2.42;;
19903;SDS011;10114;50.970;4.962;2022-09-20T19:20:03;9.23;;;2.80;;
19903;SDS011;10114;50.970;4.962;2022-09-20T19:22:34;6.30;;;2.63;;
19903;SDS011;10114;50.970;4.962;2022-09-20T19:25:10;6.20;;;2.45;;
19903;SDS011;10114;50.970;4.962;2022-09-20T19:27:42;6.90;;;2.45;;
19903;SDS011;10114;50.970;4.962;2022-09-20T19:30:11;8.20;;;2.33;;
19903;SDS011;10114;50.970;4.962;2022-09-20T19:32:37;5.75;;;2.55;;
19903;SDS011;10114;50.970;4.962;2022-09-20T19:35:03;7.30;;;2.83;;
19903;SDS011;10114;50.970;4.962;2022-09-20T19:37:36;9.07;;;2.67;;
19903;SDS011;10114;50.970;4.962;2022-09-20T19:43:57;7.82;;;2.70;;
19903;SDS011;10114;50.970;4.962;2022-09-20T19:48:31;8.30;;;3.03;;
19903;SDS011;10114;50.970;4.962;2022-09-20T19:51:01;10.95;;;3.15;;
19903;SDS011;10114;50.970;4.962;2022-09-20T19:53:27;11.82;;;3.33;;
19903;SDS011;10114;50.970;4.962;2022-09-20T19:58:19;7.90;;;3.33;;
19903;SDS011;10114;50.970;4.962;2022-09-20T20:00:46;8.63;;;3.38;;
19903;SDS011;10114;50.970;4.962;2022-09-20T20:03:13;10.18;;;3.45;;
19903;SDS011;10114;50.970;4.962;2022-09-20T20:05:39;7.22;;;3.17;;
19903;SDS011;10114;50.970;4.962;2022-09-20T20:10:37;15.07;;;4.53;;
19903;SDS011;10114;50.970;4.962;2022-09-20T20:13:09;13.15;;;6.22;;
19903;SDS011;10114;50.970;4.962;2022-09-20T20:16:01;15.35;;;6.88;;
19903;SDS011;10114;50.970;4.962;2022-09-20T20:20:56;14.23;;;6.65;;
19903;SDS011;10114;50.970;4.962;2022-09-20T20:28:15;18.63;;;7.97;;
19903;SDS011;10114;50.970;4.962;2022-09-20T20:30:41;18.52;;;7.15;;
19903;SDS011;10114;50.970;4.962;2022-09-20T20:33:12;15.55;;;6.90;;